sensor_id;sensor_type;location;lat;lon;timestamp;pressure;altitude;pressure_sealevel;temperature;humidity
27840;BME280;15207;42.182;24.308;2022-08-21T00:00:40;98571.44;;;20.39;100.00
27840;BME280;15207;42.182;24.308;2022-08-21T00:03:08;98582.47;;;20.31;100.00
27840;BME280;15207;42.182;24.308;2022-08-21T00:05:37;98585.00;;;20.39;100.00
27840;BME280;15207;42.182;24.308;2022-08-21T00:08:03;98569.03;;;20.16;100.00
27840;BME280;15207;42.182;24.308;2022-08-21T00:10:28;98561.47;;;20.11;100.00
27840;BME280;15207;42.182;24.308;2022-08-21T00:12:54;98556.06;;;20.18;100.00
27840;BME280;15207;42.182;24.308;2022-08-21T00:15:24;98559.41;;;20.20;100.00
27840;BME280;15207;42.182;24.308;2022-08-21T00:17:52;98564.41;;;20.16;100.00
27840;BME280;15207;42.182;24.308;2022-08-21T00:20:18;98558.59;;;20.19;100.00
27840;BME280;15207;42.182;24.308;2022-08-21T00:22:44;98565.03;;;20.12;100.00
27840;BME280;15207;42.182;24.308;2022-08-21T00:25:11;98553.97;;;20.13;100.00
27840;BME280;15207;42.182;24.308;2022-08-21T00:27:37;98548.31;;;20.15;100.00
27840;BME280;15207;42.182;24.308;2022-08-21T00:30:05;98541.47;;;20.26;100.00
27840;BME280;15207;42.182;24.308;2022-08-21T00:32:31;98536.03;;;20.26;100.00
27840;BME280;15207;42.182;24.308;2022-08-21T00:34:56;98533.31;;;20.26;100.00
27840;BME280;15207;42.182;24.308;2022-08-21T00:37:22;98535.81;;;20.20;100.00
27840;BME280;15207;42.182;24.308;2022-08-21T00:39:48;98543.75;;;20.22;100.00
27840;BME280;15207;42.182;24.308;2022-08-21T00:42:14;98545.22;;;20.25;100.00
27840;BME280;15207;42.182;24.308;2022-08-21T00:44:42;98552.72;;;20.22;100.00
27840;BME280;15207;42.182;24.308;2022-08-21T00:47:08;98558.97;;;20.16;100.00
27840;BME280;15207;42.182;24.308;2022-08-21T00:49:33;98561.06;;;20.14;100.00
27840;BME280;15207;42.182;24.308;2022-08-21T00:52:00;98562.59;;;19.88;100.00
27840;BME280;15207;42.182;24.308;2022-08-21T00:54:28;98558.53;;;20.06;100.00
27840;BME280;15207;42.182;24.308;2022-08-21T00:56:58;98564.84;;;20.13;100.00
27840;BME280;15207;42.182;24.308;2022-08-21T00:59:26;98554.59;;;20.15;100.00
27840;BME280;15207;42.182;24.308;2022-08-21T01:01:52;98554.41;;;20.17;100.00
27840;BME280;15207;42.182;24.308;2022-08-21T01:04:19;98553.38;;;20.25;100.00
27840;BME280;15207;42.182;24.308;2022-08-21T01:06:45;98546.88;;;20.19;100.00
27840;BME280;15207;42.182;24.308;2022-08-21T01:09:11;98550.47;;;20.26;100.00
27840;BME280;15207;42.182;24.308;2022-08-21T01:11:37;98557.16;;;20.30;100.00
27840;BME280;15207;42.182;24.308;2022-08-21T01:14:03;98555.72;;;20.34;100.00
27840;BME280;15207;42.182;24.308;2022-08-21T01:16:29;98567.22;;;20.37;100.00
27840;BME280;15207;42.182;24.308;2022-08-21T01:18:55;98558.44;;;20.34;100.00
27840;BME280;15207;42.182;24.308;2022-08-21T01:21:23;98559.91;;;20.37;100.00
27840;BME280;15207;42.182;24.308;2022-08-21T01:23:50;98563.88;;;20.41;100.00
27840;BME280;15207;42.182;24.308;2022-08-21T01:26:20;98572.28;;;20.46;100.00
27840;BME280;15207;42.182;24.308;2022-08-21T01:28:56;98572.47;;;20.45;100.00
27840;BME280;15207;42.182;24.308;2022-08-21T01:31:24;98572.69;;;20.50;100.00
27840;BME280;15207;42.182;24.308;2022-08-21T01:33:51;98572.13;;;20.61;100.00
27840;BME280;15207;42.182;24.308;2022-08-21T01:36:16;98588.25;;;20.70;100.00
27840;BME280;15207;42.182;24.308;2022-08-21T01:38:42;98596.22;;;20.78;100.00
27840;BME280;15207;42.182;24.308;2022-08-21T01:41:08;98596.44;;;20.83;100.00
27840;BME280;15207;42.182;24.308;2022-08-21T01:43:33;98606.09;;;20.86;100.00
27840;BME280;15207;42.182;24.308;2022-08-21T01:45:59;98606.09;;;20.86;100.00
27840;BME280;15207;42.182;24.308;2022-08-21T01:48:25;98604.22;;;20.86;100.00
27840;BME280;15207;42.182;24.308;2022-08-21T01:50:50;98602.88;;;20.69;100.00
27840;BME280;15207;42.182;24.308;2022-08-21T01:53:16;98593.66;;;20.56;100.00
27840;BME280;15207;42.182;24.308;2022-08-21T01:55:43;98584.16;;;20.39;100.00
27840;BME280;15207;42.182;24.308;2022-08-21T01:58:09;98568.03;;;19.88;100.00
27840;BME280;15207;42.182;24.308;2022-08-21T02:00:35;98572.50;;;19.74;100.00
27840;BME280;15207;42.182;24.308;2022-08-21T02:03:00;98568.06;;;19.66;100.00
27840;BME280;15207;42.182;24.308;2022-08-21T02:05:27;98565.00;;;19.48;100.00
27840;BME280;15207;42.182;24.308;2022-08-21T02:07:54;98564.75;;;19.36;100.00
27840;BME280;15207;42.182;24.308;2022-08-21T02:10:25;98577.31;;;19.43;100.00
27840;BME280;15207;42.182;24.308;2022-08-21T02:12:51;98571.97;;;19.28;100.00
27840;BME280;15207;42.182;24.308;2022-08-21T02:15:18;98546.53;;;19.08;100.00
27840;BME280;15207;42.182;24.308;2022-08-21T02:17:53;98565.91;;;19.26;100.00
27840;BME280;15207;42.182;24.308;2022-08-21T02:22:51;98552.34;;;19.26;100.00
27840;BME280;15207;42.182;24.308;2022-08-21T02:25:19;98566.59;;;19.35;100.00
27840;BME280;15207;42.182;24.308;2022-08-21T02:27:46;98561.47;;;19.47;100.00
27840;BME280;15207;42.182;24.308;2022-08-21T02:30:31;98561.13;;;19.57;100.00
27840;BME280;15207;42.182;24.308;2022-08-21T02:32:57;98566.50;;;19.50;100.00
27840;BME280;15207;42.182;24.308;2022-08-21T02:35:23;98567.16;;;19.52;100.00
27840;BME280;15207;42.182;24.308;2022-08-21T02:37:56;98568.81;;;19.53;100.00
27840;BME280;15207;42.182;24.308;2022-08-21T02:40:25;98575.31;;;19.52;100.00
27840;BME280;15207;42.182;24.308;2022-08-21T02:42:51;98577.09;;;19.45;100.00
27840;BME280;15207;42.182;24.308;2022-08-21T02:45:18;98568.28;;;19.36;100.00
27840;BME280;15207;42.182;24.308;2022-08-21T02:47:51;98570.75;;;19.31;100.00
27840;BME280;15207;42.182;24.308;2022-08-21T02:50:27;98579.19;;;19.43;100.00
27840;BME280;15207;42.182;24.308;2022-08-21T02:52:53;98572.03;;;19.64;100.00
27840;BME280;15207;42.182;24.308;2022-08-21T02:55:20;98571.44;;;19.68;100.00
27840;BME280;15207;42.182;24.308;2022-08-21T02:57:47;98576.47;;;19.72;100.00
27840;BME280;15207;42.182;24.308;2022-08-21T03:00:14;98580.91;;;19.79;100.00
27840;BME280;15207;42.182;24.308;2022-08-21T03:02:40;98586.44;;;19.93;100.00
27840;BME280;15207;42.182;24.308;2022-08-21T03:05:07;98593.16;;;19.97;100.00
27840;BME280;15207;42.182;24.308;2022-08-21T03:07:33;98601.13;;;19.99;100.00
27840;BME280;15207;42.182;24.308;2022-08-21T03:10:00;98606.19;;;20.08;100.00
27840;BME280;15207;42.182;24.308;2022-08-21T03:12:26;98602.22;;;20.11;100.00
27840;BME280;15207;42.182;24.308;2022-08-21T03:14:51;98609.34;;;20.12;100.00
27840;BME280;15207;42.182;24.308;2022-08-21T03:17:17;98607.22;;;20.07;100.00
27840;BME280;15207;42.182;24.308;2022-08-21T03:19:42;98597.16;;;20.01;100.00
27840;BME280;15207;42.182;24.308;2022-08-21T03:22:08;98596.72;;;19.98;100.00
27840;BME280;15207;42.182;24.308;2022-08-21T03:24:33;98587.56;;;19.77;100.00
27840;BME280;15207;42.182;24.308;2022-08-21T03:26:59;98583.97;;;19.69;100.00
27840;BME280;15207;42.182;24.308;2022-08-21T03:29:25;98584.19;;;19.68;100.00
27840;BME280;15207;42.182;24.308;2022-08-21T03:31:50;98591.09;;;19.71;100.00
27840;BME280;15207;42.182;24.308;2022-08-21T03:34:18;98598.25;;;19.78;100.00
27840;BME280;15207;42.182;24.308;2022-08-21T03:36:44;98598.28;;;19.85;100.00
27840;BME280;15207;42.182;24.308;2022-08-21T03:39:10;98598.97;;;19.94;100.00
27840;BME280;15207;42.182;24.308;2022-08-21T03:41:35;98604.41;;;19.94;100.00
27840;BME280;15207;42.182;24.308;2022-08-21T03:44:01;98602.34;;;19.96;100.00
27840;BME280;15207;42.182;24.308;2022-08-21T03:46:28;98599.81;;;19.94;100.00
27840;BME280;15207;42.182;24.308;2022-08-21T03:48:53;98601.13;;;19.99;100.00
27840;BME280;15207;42.182;24.308;2022-08-21T03:51:20;98603.56;;;19.93;100.00
27840;BME280;15207;42.182;24.308;2022-08-21T03:53:46;98614.91;;;19.97;100.00
27840;BME280;15207;42.182;24.308;2022-08-21T03:56:11;98627.50;;;20.05;100.00
27840;BME280;15207;42.182;24.308;2022-08-21T03:58:37;98627.34;;;20.13;100.00
27840;BME280;15207;42.182;24.308;2022-08-21T04:01:04;98632.50;;;20.08;100.00
27840;BME280;15207;42.182;24.308;2022-08-21T04:03:33;98622.25;;;20.03;100.00
27840;BME280;15207;42.182;24.308;2022-08-21T04:05:59;98628.03;;;19.93;100.00
27840;BME280;15207;42.182;24.308;2022-08-21T04:08:25;98621.25;;;19.82;100.00
27840;BME280;15207;42.182;24.308;2022-08-21T04:10:52;98610.38;;;19.82;100.00
27840;BME280;15207;42.182;24.308;2022-08-21T04:13:19;98612.25;;;19.82;100.00
27840;BME280;15207;42.182;24.308;2022-08-21T04:15:45;98615.22;;;19.87;100.00
27840;BME280;15207;42.182;24.308;2022-08-21T04:18:11;98624.56;;;19.78;100.00
27840;BME280;15207;42.182;24.308;2022-08-21T04:20:37;98622.31;;;19.81;100.00
27840;BME280;15207;42.182;24.308;2022-08-21T04:23:03;98626.75;;;19.89;100.00
27840;BME280;15207;42.182;24.308;2022-08-21T04:25:29;98628.41;;;19.90;100.00
27840;BME280;15207;42.182;24.308;2022-08-21T04:27:55;98627.38;;;19.91;100.00
27840;BME280;15207;42.182;24.308;2022-08-21T04:30:21;98633.22;;;19.88;100.00
27840;BME280;15207;42.182;24.308;2022-08-21T04:32:48;98622.97;;;19.90;100.00
27840;BME280;15207;42.182;24.308;2022-08-21T04:35:16;98611.16;;;19.98;100.00
27840;BME280;15207;42.182;24.308;2022-08-21T04:37:42;98615.19;;;20.09;100.00
27840;BME280;15207;42.182;24.308;2022-08-21T04:40:08;98610.78;;;20.08;100.00
27840;BME280;15207;42.182;24.308;2022-08-21T04:42:42;98612.47;;;20.09;100.00
27840;BME280;15207;42.182;24.308;2022-08-21T04:45:08;98613.28;;;20.09;100.00
27840;BME280;15207;42.182;24.308;2022-08-21T04:47:34;98600.50;;;20.03;100.00
27840;BME280;15207;42.182;24.308;2022-08-21T04:49:59;98592.78;;;20.07;100.00
27840;BME280;15207;42.182;24.308;2022-08-21T04:52:25;98599.03;;;20.01;100.00
27840;BME280;15207;42.182;24.308;2022-08-21T04:54:51;98601.16;;;20.05;100.00
27840;BME280;15207;42.182;24.308;2022-08-21T04:57:17;98607.22;;;20.07;100.00
27840;BME280;15207;42.182;24.308;2022-08-21T04:59:45;98596.75;;;20.04;100.00
27840;BME280;15207;42.182;24.308;2022-08-21T05:02:12;98603.31;;;20.17;100.00
27840;BME280;15207;42.182;24.308;2022-08-21T05:04:43;98608.75;;;20.17;100.00
27840;BME280;15207;42.182;24.308;2022-08-21T05:07:13;98609.56;;;20.17;100.00
27840;BME280;15207;42.182;24.308;2022-08-21T05:09:40;98607.28;;;20.14;100.00
27840;BME280;15207;42.182;24.308;2022-08-21T05:12:06;98611.69;;;20.22;100.00
27840;BME280;15207;42.182;24.308;2022-08-21T05:14:32;98610.88;;;20.28;100.00
27840;BME280;15207;42.182;24.308;2022-08-21T05:16:58;98620.53;;;20.31;100.00
27840;BME280;15207;42.182;24.308;2022-08-21T05:19:24;98621.16;;;20.33;100.00
27840;BME280;15207;42.182;24.308;2022-08-21T05:21:51;98615.94;;;20.38;100.00
27840;BME280;15207;42.182;24.308;2022-08-21T05:24:17;98618.66;;;20.38;100.00
27840;BME280;15207;42.182;24.308;2022-08-21T05:26:43;98611.13;;;20.33;100.00
27840;BME280;15207;42.182;24.308;2022-08-21T05:29:09;98607.56;;;20.33;100.00
27840;BME280;15207;42.182;24.308;2022-08-21T05:31:36;98611.50;;;20.30;100.00
27840;BME280;15207;42.182;24.308;2022-08-21T05:34:02;98610.03;;;20.28;100.00
27840;BME280;15207;42.182;24.308;2022-08-21T05:36:28;98605.06;;;20.31;100.00
27840;BME280;15207;42.182;24.308;2022-08-21T05:38:53;98607.94;;;20.23;100.00
27840;BME280;15207;42.182;24.308;2022-08-21T05:41:19;98617.81;;;20.31;100.00
27840;BME280;15207;42.182;24.308;2022-08-21T05:43:45;98616.31;;;20.28;100.00
27840;BME280;15207;42.182;24.308;2022-08-21T05:46:10;98621.38;;;20.31;100.00
27840;BME280;15207;42.182;24.308;2022-08-21T05:48:36;98610.47;;;20.25;100.00
27840;BME280;15207;42.182;24.308;2022-08-21T05:51:10;98615.25;;;20.22;100.00
27840;BME280;15207;42.182;24.308;2022-08-21T05:53:37;98617.34;;;20.20;100.00
27840;BME280;15207;42.182;24.308;2022-08-21T05:56:03;98611.75;;;20.29;100.00
27840;BME280;15207;42.182;24.308;2022-08-21T05:58:31;98607.78;;;20.31;100.00
27840;BME280;15207;42.182;24.308;2022-08-21T06:00:57;98611.69;;;20.22;100.00
27840;BME280;15207;42.182;24.308;2022-08-21T06:03:26;98611.56;;;20.02;100.00
27840;BME280;15207;42.182;24.308;2022-08-21T06:05:53;98616.69;;;19.90;100.00
27840;BME280;15207;42.182;24.308;2022-08-21T06:08:20;98606.63;;;20.12;100.00
27840;BME280;15207;42.182;24.308;2022-08-21T06:10:47;98599.13;;;20.14;100.00
27840;BME280;15207;42.182;24.308;2022-08-21T06:13:14;98610.38;;;20.11;100.00
27840;BME280;15207;42.182;24.308;2022-08-21T06:15:40;98601.69;;;20.29;100.00
27840;BME280;15207;42.182;24.308;2022-08-21T06:18:06;98603.81;;;20.34;100.00
27840;BME280;15207;42.182;24.308;2022-08-21T06:20:32;98604.28;;;20.44;100.00
27840;BME280;15207;42.182;24.308;2022-08-21T06:22:57;98611.38;;;20.45;100.00
27840;BME280;15207;42.182;24.308;2022-08-21T06:25:23;98598.88;;;20.51;100.00
27840;BME280;15207;42.182;24.308;2022-08-21T06:27:50;98608.03;;;20.50;100.00
27840;BME280;15207;42.182;24.308;2022-08-21T06:30:16;98604.31;;;20.51;100.00
27840;BME280;15207;42.182;24.308;2022-08-21T06:32:41;98602.38;;;20.45;100.00
27840;BME280;15207;42.182;24.308;2022-08-21T06:35:08;98604.91;;;20.46;100.00
27840;BME280;15207;42.182;24.308;2022-08-21T06:37:33;98612.44;;;20.44;100.00
27840;BME280;15207;42.182;24.308;2022-08-21T06:39:59;98616.25;;;20.64;100.00
27840;BME280;15207;42.182;24.308;2022-08-21T06:42:25;98615.03;;;20.73;100.00
27840;BME280;15207;42.182;24.308;2022-08-21T06:44:52;98614.41;;;20.71;100.00
27840;BME280;15207;42.182;24.308;2022-08-21T06:47:17;98605.22;;;20.79;100.00
27840;BME280;15207;42.182;24.308;2022-08-21T06:49:43;98612.31;;;20.73;100.00
27840;BME280;15207;42.182;24.308;2022-08-21T06:52:10;98612.97;;;20.82;100.00
27840;BME280;15207;42.182;24.308;2022-08-21T06:54:36;98617.84;;;20.86;100.00
27840;BME280;15207;42.182;24.308;2022-08-21T06:57:02;98610.28;;;20.88;100.00
27840;BME280;15207;42.182;24.308;2022-08-21T06:59:28;98608.22;;;20.97;100.00
27840;BME280;15207;42.182;24.308;2022-08-21T07:01:53;98608.66;;;21.01;100.00
27840;BME280;15207;42.182;24.308;2022-08-21T07:04:19;98622.47;;;21.06;100.00
27840;BME280;15207;42.182;24.308;2022-08-21T07:06:45;98607.19;;;21.05;100.00
27840;BME280;15207;42.182;24.308;2022-08-21T07:09:11;98610.53;;;21.00;100.00
27840;BME280;15207;42.182;24.308;2022-08-21T07:11:37;98610.34;;;21.02;100.00
27840;BME280;15207;42.182;24.308;2022-08-21T07:14:04;98616.41;;;21.04;100.00
27840;BME280;15207;42.182;24.308;2022-08-21T07:16:29;98617.47;;;21.10;100.00
27840;BME280;15207;42.182;24.308;2022-08-21T07:18:55;98611.59;;;21.20;100.00
27840;BME280;15207;42.182;24.308;2022-08-21T07:21:21;98609.75;;;21.27;100.00
27840;BME280;15207;42.182;24.308;2022-08-21T07:23:49;98608.69;;;21.28;100.00
27840;BME280;15207;42.182;24.308;2022-08-21T07:26:16;98610.56;;;21.27;100.00
27840;BME280;15207;42.182;24.308;2022-08-21T07:28:42;98612.22;;;21.35;100.00
27840;BME280;15207;42.182;24.308;2022-08-21T07:31:09;98620.84;;;21.39;100.00
27840;BME280;15207;42.182;24.308;2022-08-21T07:33:35;98615.81;;;21.43;100.00
27840;BME280;15207;42.182;24.308;2022-08-21T07:36:02;98609.53;;;21.42;100.00
27840;BME280;15207;42.182;24.308;2022-08-21T07:38:28;98618.72;;;21.34;100.00
27840;BME280;15207;42.182;24.308;2022-08-21T07:40:55;98610.56;;;21.34;100.00
27840;BME280;15207;42.182;24.308;2022-08-21T07:43:24;98618.31;;;21.31;100.00
27840;BME280;15207;42.182;24.308;2022-08-21T07:45:49;98615.19;;;21.27;100.00
27840;BME280;15207;42.182;24.308;2022-08-21T07:48:15;98615.41;;;21.32;100.00
27840;BME280;15207;42.182;24.308;2022-08-21T07:50:41;98617.25;;;21.32;100.00
27840;BME280;15207;42.182;24.308;2022-08-21T07:53:07;98609.94;;;21.32;100.00
27840;BME280;15207;42.182;24.308;2022-08-21T07:55:33;98606.38;;;21.32;100.00
27840;BME280;15207;42.182;24.308;2022-08-21T07:57:59;98598.22;;;21.38;100.00
27840;BME280;15207;42.182;24.308;2022-08-21T08:00:26;98599.88;;;21.46;100.00
27840;BME280;15207;42.182;24.308;2022-08-21T08:02:54;98598.44;;;21.50;100.00
27840;BME280;15207;42.182;24.308;2022-08-21T08:05:23;98596.56;;;21.44;100.00
27840;BME280;15207;42.182;24.308;2022-08-21T08:07:49;98596.75;;;21.49;100.00
27840;BME280;15207;42.182;24.308;2022-08-21T08:10:15;98604.47;;;21.46;100.00
27840;BME280;15207;42.182;24.308;2022-08-21T08:12:43;98595.91;;;21.42;100.00
27840;BME280;15207;42.182;24.308;2022-08-21T08:15:16;98592.56;;;21.40;100.00
27840;BME280;15207;42.182;24.308;2022-08-21T08:17:42;98588.78;;;21.41;100.00
27840;BME280;15207;42.182;24.308;2022-08-21T08:20:09;98587.72;;;21.42;100.00
27840;BME280;15207;42.182;24.308;2022-08-21T08:22:35;98582.53;;;21.34;100.00
27840;BME280;15207;42.182;24.308;2022-08-21T08:25:01;98581.47;;;21.35;100.00
27840;BME280;15207;42.182;24.308;2022-08-21T08:27:27;98580.00;;;21.39;100.00
27840;BME280;15207;42.182;24.308;2022-08-21T08:29:53;98580.81;;;21.33;100.00
27840;BME280;15207;42.182;24.308;2022-08-21T08:32:19;98576.84;;;21.35;100.00
27840;BME280;15207;42.182;24.308;2022-08-21T08:34:45;98578.75;;;21.35;100.00
27840;BME280;15207;42.182;24.308;2022-08-21T08:37:12;98577.69;;;21.36;100.00
27840;BME280;15207;42.182;24.308;2022-08-21T08:39:38;98567.19;;;21.26;100.00
27840;BME280;15207;42.182;24.308;2022-08-21T08:42:08;98571.00;;;21.38;100.00
27840;BME280;15207;42.182;24.308;2022-08-21T08:44:37;98565.34;;;21.33;100.00
27840;BME280;15207;42.182;24.308;2022-08-21T08:47:04;98559.91;;;21.40;100.00
27840;BME280;15207;42.182;24.308;2022-08-21T08:49:37;98558.19;;;21.46;100.00
27840;BME280;15207;42.182;24.308;2022-08-21T08:52:18;98560.09;;;21.45;100.00
27840;BME280;15207;42.182;24.308;2022-08-21T08:54:55;98561.13;;;21.51;100.00
27840;BME280;15207;42.182;24.308;2022-08-21T08:57:23;98555.25;;;21.54;100.00
27840;BME280;15207;42.182;24.308;2022-08-21T08:59:55;98553.81;;;21.51;100.00
27840;BME280;15207;42.182;24.308;2022-08-21T09:02:22;98556.97;;;21.42;100.00
27840;BME280;15207;42.182;24.308;2022-08-21T09:04:53;98552.13;;;21.37;100.00
27840;BME280;15207;42.182;24.308;2022-08-21T09:07:45;98542.91;;;21.38;100.00
27840;BME280;15207;42.182;24.308;2022-08-21T09:13:24;98534.94;;;21.43;100.00
27840;BME280;15207;42.182;24.308;2022-08-21T09:25:08;98521.78;;;21.33;100.00
27840;BME280;15207;42.182;24.308;2022-08-21T09:27:36;98514.66;;;21.39;100.00
27840;BME280;15207;42.182;24.308;2022-08-21T09:30:04;98519.47;;;21.23;100.00
27840;BME280;15207;42.182;24.308;2022-08-21T09:32:32;98525.56;;;21.39;100.00
27840;BME280;15207;42.182;24.308;2022-08-21T09:37:28;98519.25;;;21.59;100.00
27840;BME280;15207;42.182;24.308;2022-08-21T09:39:55;98520.25;;;21.58;100.00
27840;BME280;15207;42.182;24.308;2022-08-21T09:42:31;98527.81;;;21.69;100.00
27840;BME280;15207;42.182;24.308;2022-08-21T09:45:13;98529.28;;;21.72;100.00
27840;BME280;15207;42.182;24.308;2022-08-21T09:47:41;98526.31;;;21.80;100.00
27840;BME280;15207;42.182;24.308;2022-08-21T09:50:08;98529.03;;;21.80;100.00
27840;BME280;15207;42.182;24.308;2022-08-21T09:52:34;98524.44;;;21.87;100.00
27840;BME280;15207;42.182;24.308;2022-08-21T09:54:59;98522.97;;;21.91;100.00
27840;BME280;15207;42.182;24.308;2022-08-21T09:57:28;98523.94;;;22.04;100.00
27840;BME280;15207;42.182;24.308;2022-08-21T10:02:52;98526.66;;;22.04;100.00
27840;BME280;15207;42.182;24.308;2022-08-21T10:05:22;98523.94;;;22.04;100.00
27840;BME280;15207;42.182;24.308;2022-08-21T10:07:49;98518.72;;;21.96;100.00
27840;BME280;15207;42.182;24.308;2022-08-21T10:10:28;98522.53;;;21.88;100.00
27840;BME280;15207;42.182;24.308;2022-08-21T10:13:12;98525.44;;;21.93;100.00
27840;BME280;15207;42.182;24.308;2022-08-21T10:16:05;98518.97;;;21.94;100.00
27840;BME280;15207;42.182;24.308;2022-08-21T10:18:41;98526.78;;;21.77;100.00
27840;BME280;15207;42.182;24.308;2022-08-21T10:21:27;98521.94;;;21.72;100.00
27840;BME280;15207;42.182;24.308;2022-08-21T10:24:17;98525.06;;;21.76;100.00
27840;BME280;15207;42.182;24.308;2022-08-21T10:29:41;98518.19;;;21.66;100.00
27840;BME280;15207;42.182;24.308;2022-08-21T10:40:25;98525.38;;;22.13;100.00
27840;BME280;15207;42.182;24.308;2022-08-21T10:48:39;98509.00;;;22.20;100.00
27840;BME280;15207;42.182;24.308;2022-08-21T10:51:33;98511.53;;;22.22;100.00
27840;BME280;15207;42.182;24.308;2022-08-21T10:54:25;98508.69;;;22.35;100.00
27840;BME280;15207;42.182;24.308;2022-08-21T10:56:59;98510.00;;;22.26;100.00
27840;BME280;15207;42.182;24.308;2022-08-21T10:59:47;98511.78;;;22.45;100.00
27840;BME280;15207;42.182;24.308;2022-08-21T11:02:42;98519.44;;;22.69;100.00
27840;BME280;15207;42.182;24.308;2022-08-21T11:05:17;98521.03;;;22.83;100.00
27840;BME280;15207;42.182;24.308;2022-08-21T11:07:48;98518.44;;;22.95;100.00
27840;BME280;15207;42.182;24.308;2022-08-21T11:12:53;98514.25;;;22.93;100.00
27840;BME280;15207;42.182;24.308;2022-08-21T11:15:33;98527.25;;;22.97;100.00
27840;BME280;15207;42.182;24.308;2022-08-21T11:18:01;98519.88;;;22.98;100.00
27840;BME280;15207;42.182;24.308;2022-08-21T11:20:35;98519.75;;;22.86;100.00
27840;BME280;15207;42.182;24.308;2022-08-21T11:23:26;98507.84;;;22.80;100.00
27840;BME280;15207;42.182;24.308;2022-08-21T11:25:59;98512.50;;;22.73;100.00
27840;BME280;15207;42.182;24.308;2022-08-21T11:28:46;98510.66;;;22.67;100.00
27840;BME280;15207;42.182;24.308;2022-08-21T11:34:10;98505.44;;;22.58;100.00
27840;BME280;15207;42.182;24.308;2022-08-21T11:39:38;98497.16;;;22.40;100.00
27840;BME280;15207;42.182;24.308;2022-08-21T11:42:22;98498.59;;;22.42;100.00
27840;BME280;15207;42.182;24.308;2022-08-21T11:44:52;98494.97;;;22.62;100.00
27840;BME280;15207;42.182;24.308;2022-08-21T11:47:49;98493.50;;;22.59;100.00
27840;BME280;15207;42.182;24.308;2022-08-21T11:50:20;98492.69;;;22.45;100.00
27840;BME280;15207;42.182;24.308;2022-08-21T11:55:48;98481.66;;;22.33;100.00
27840;BME280;15207;42.182;24.308;2022-08-21T11:58:25;98476.13;;;22.47;100.00
27840;BME280;15207;42.182;24.308;2022-08-21T12:00:54;98469.81;;;22.46;100.00
27840;BME280;15207;42.182;24.308;2022-08-21T12:03:26;98475.69;;;22.57;100.00
27840;BME280;15207;42.182;24.308;2022-08-21T12:06:07;98470.78;;;22.66;100.00
27840;BME280;15207;42.182;24.308;2022-08-21T12:08:37;98464.88;;;22.69;100.00
27840;BME280;15207;42.182;24.308;2022-08-21T12:16:33;98467.97;;;22.79;100.00
27840;BME280;15207;42.182;24.308;2022-08-21T12:21:59;98472.41;;;22.99;100.00
27840;BME280;15207;42.182;24.308;2022-08-21T12:26:56;98461.16;;;23.14;96.84
27840;BME280;15207;42.182;24.308;2022-08-21T12:29:30;98470.28;;;23.27;97.89
27840;BME280;15207;42.182;24.308;2022-08-21T12:31:59;98469.75;;;23.43;99.92
27840;BME280;15207;42.182;24.308;2022-08-21T12:34:33;98473.06;;;23.45;96.67
27840;BME280;15207;42.182;24.308;2022-08-21T12:37:01;98472.34;;;23.31;95.62
27840;BME280;15207;42.182;24.308;2022-08-21T12:39:31;98479.53;;;23.25;96.55
27840;BME280;15207;42.182;24.308;2022-08-21T12:44:50;98470.28;;;23.27;100.00
27840;BME280;15207;42.182;24.308;2022-08-21T12:47:20;98473.09;;;23.20;100.00
27840;BME280;15207;42.182;24.308;2022-08-21T12:50:03;98465.13;;;23.18;99.90
27840;BME280;15207;42.182;24.308;2022-08-21T12:52:40;98463.22;;;23.19;100.00
27840;BME280;15207;42.182;24.308;2022-08-21T12:55:10;98461.53;;;23.18;100.00
27840;BME280;15207;42.182;24.308;2022-08-21T12:57:40;98459.88;;;23.17;100.00
27840;BME280;15207;42.182;24.308;2022-08-21T13:00:09;98458.22;;;23.16;100.00
27840;BME280;15207;42.182;24.308;2022-08-21T13:02:44;98459.50;;;23.13;99.21
27840;BME280;15207;42.182;24.308;2022-08-21T13:05:14;98449.19;;;23.15;96.83
27840;BME280;15207;42.182;24.308;2022-08-21T13:07:46;98446.38;;;23.22;97.46
27840;BME280;15207;42.182;24.308;2022-08-21T13:10:25;98448.56;;;23.38;98.59
27840;BME280;15207;42.182;24.308;2022-08-21T13:12:54;98448.41;;;23.52;99.89
27840;BME280;15207;42.182;24.308;2022-08-21T13:15:27;98440.44;;;23.50;96.60
27840;BME280;15207;42.182;24.308;2022-08-21T13:17:54;98438.34;;;23.53;95.12
27840;BME280;15207;42.182;24.308;2022-08-21T13:20:21;98432.69;;;23.66;96.20
27840;BME280;15207;42.182;24.308;2022-08-21T13:22:48;98436.34;;;23.78;94.23
27840;BME280;15207;42.182;24.308;2022-08-21T13:25:16;98430.09;;;23.90;94.88
27840;BME280;15207;42.182;24.308;2022-08-21T13:27:44;98431.91;;;23.96;94.01
27840;BME280;15207;42.182;24.308;2022-08-21T13:30:21;98422.19;;;24.00;95.53
27840;BME280;15207;42.182;24.308;2022-08-21T13:32:51;98419.16;;;23.90;98.74
27840;BME280;15207;42.182;24.308;2022-08-21T13:35:20;98419.63;;;23.87;96.36
27840;BME280;15207;42.182;24.308;2022-08-21T13:37:48;98417.59;;;23.82;91.53
27840;BME280;15207;42.182;24.308;2022-08-21T13:40:24;98420.69;;;23.86;93.80
27840;BME280;15207;42.182;24.308;2022-08-21T13:42:51;98422.13;;;23.88;93.62
27840;BME280;15207;42.182;24.308;2022-08-21T13:45:25;98416.88;;;23.87;95.54
27840;BME280;15207;42.182;24.308;2022-08-21T13:47:53;98424.50;;;23.85;96.28
27840;BME280;15207;42.182;24.308;2022-08-21T13:50:20;98426.16;;;23.86;96.24